sensor_id;sensor_type;location;lat;lon;timestamp;P1;durP1;ratioP1;P2;durP2;ratioP2
44384;SDS011;30101;32.778;34.994;2022-12-18T00:02:19;9.40;;;6.35;;
44384;SDS011;30101;32.778;34.994;2022-12-18T00:07:22;8.77;;;5.45;;
44384;SDS011;30101;32.778;34.994;2022-12-18T00:12:25;9.18;;;4.80;;
44384;SDS011;30101;32.778;34.994;2022-12-18T00:17:31;11.40;;;5.60;;
44384;SDS011;30101;32.778;34.994;2022-12-18T00:22:35;12.43;;;5.95;;
44384;SDS011;30101;32.778;34.994;2022-12-18T00:27:38;8.27;;;5.28;;
44384;SDS011;30101;32.778;34.994;2022-12-18T00:32:42;7.70;;;5.20;;
44384;SDS011;30101;32.778;34.994;2022-12-18T00:37:45;8.80;;;5.18;;
44384;SDS011;30101;32.778;34.994;2022-12-18T00:42:48;9.13;;;5.20;;
44384;SDS011;30101;32.778;34.994;2022-12-18T00:47:52;8.93;;;5.28;;
44384;SDS011;30101;32.778;34.994;2022-12-18T00:52:56;9.68;;;5.18;;
44384;SDS011;30101;32.778;34.994;2022-12-18T00:58:00;10.70;;;4.95;;
44384;SDS011;30101;32.778;34.994;2022-12-18T01:03:04;7.95;;;4.68;;
44384;SDS011;30101;32.778;34.994;2022-12-18T01:08:08;11.60;;;5.18;;
44384;SDS011;30101;32.778;34.994;2022-12-18T01:13:11;9.88;;;5.60;;
44384;SDS011;30101;32.778;34.994;2022-12-18T01:18:16;9.27;;;5.35;;
44384;SDS011;30101;32.778;34.994;2022-12-18T01:23:19;7.05;;;4.72;;
44384;SDS011;30101;32.778;34.994;2022-12-18T01:28:23;7.40;;;4.85;;
44384;SDS011;30101;32.778;34.994;2022-12-18T01:33:27;9.45;;;4.88;;
44384;SDS011;30101;32.778;34.994;2022-12-18T01:38:31;6.43;;;4.30;;
44384;SDS011;30101;32.778;34.994;2022-12-18T01:43:44;7.75;;;4.85;;
44384;SDS011;30101;32.778;34.994;2022-12-18T01:48:54;7.43;;;4.88;;
44384;SDS011;30101;32.778;34.994;2022-12-18T01:54:02;8.93;;;4.60;;
44384;SDS011;30101;32.778;34.994;2022-12-18T01:59:05;8.30;;;4.35;;
44384;SDS011;30101;32.778;34.994;2022-12-18T02:09:41;6.78;;;4.38;;
44384;SDS011;30101;32.778;34.994;2022-12-18T02:30:45;6.00;;;3.60;;
44384;SDS011;30101;32.778;34.994;2022-12-18T02:35:52;6.50;;;4.10;;
44384;SDS011;30101;32.778;34.994;2022-12-18T02:41:00;7.93;;;3.67;;
44384;SDS011;30101;32.778;34.994;2022-12-18T02:46:29;5.57;;;3.58;;
44384;SDS011;30101;32.778;34.994;2022-12-18T02:51:48;6.68;;;3.92;;
44384;SDS011;30101;32.778;34.994;2022-12-18T02:56:56;6.45;;;3.40;;
44384;SDS011;30101;32.778;34.994;2022-12-18T03:07:34;6.50;;;3.13;;
44384;SDS011;30101;32.778;34.994;2022-12-18T03:12:49;3.67;;;2.95;;
44384;SDS011;30101;32.778;34.994;2022-12-18T03:18:13;4.05;;;3.08;;
44384;SDS011;30101;32.778;34.994;2022-12-18T03:23:24;4.22;;;3.17;;
44384;SDS011;30101;32.778;34.994;2022-12-18T03:28:34;6.07;;;2.50;;
44384;SDS011;30101;32.778;34.994;2022-12-18T03:39:04;4.93;;;2.78;;
44384;SDS011;30101;32.778;34.994;2022-12-18T03:44:16;3.83;;;2.47;;
44384;SDS011;30101;32.778;34.994;2022-12-18T03:49:39;4.78;;;2.95;;
44384;SDS011;30101;32.778;34.994;2022-12-18T03:54:59;4.63;;;2.38;;
44384;SDS011;30101;32.778;34.994;2022-12-18T04:00:10;3.47;;;2.50;;
44384;SDS011;30101;32.778;34.994;2022-12-18T04:05:29;3.95;;;2.75;;
44384;SDS011;30101;32.778;34.994;2022-12-18T04:10:36;3.88;;;2.72;;
44384;SDS011;30101;32.778;34.994;2022-12-18T04:15:40;5.25;;;2.75;;
44384;SDS011;30101;32.778;34.994;2022-12-18T04:20:49;3.88;;;2.70;;
44384;SDS011;30101;32.778;34.994;2022-12-18T04:25:53;5.68;;;3.08;;
44384;SDS011;30101;32.778;34.994;2022-12-18T04:31:11;2.83;;;2.50;;
44384;SDS011;30101;32.778;34.994;2022-12-18T04:36:15;5.15;;;3.25;;
44384;SDS011;30101;32.778;34.994;2022-12-18T04:41:20;8.43;;;2.40;;
44384;SDS011;30101;32.778;34.994;2022-12-18T04:46:28;6.05;;;3.05;;
44384;SDS011;30101;32.778;34.994;2022-12-18T04:51:31;4.45;;;3.10;;
44384;SDS011;30101;32.778;34.994;2022-12-18T04:56:35;6.15;;;3.47;;
44384;SDS011;30101;32.778;34.994;2022-12-18T05:01:38;5.82;;;3.15;;
44384;SDS011;30101;32.778;34.994;2022-12-18T05:06:41;8.10;;;3.22;;
44384;SDS011;30101;32.778;34.994;2022-12-18T05:11:45;8.10;;;3.90;;
44384;SDS011;30101;32.778;34.994;2022-12-18T05:16:48;4.25;;;3.08;;
44384;SDS011;30101;32.778;34.994;2022-12-18T05:21:52;10.60;;;3.55;;
44384;SDS011;30101;32.778;34.994;2022-12-18T05:26:56;8.98;;;3.97;;
44384;SDS011;30101;32.778;34.994;2022-12-18T05:31:59;7.82;;;4.03;;
44384;SDS011;30101;32.778;34.994;2022-12-18T05:37:03;7.00;;;3.85;;
44384;SDS011;30101;32.778;34.994;2022-12-18T05:42:06;8.43;;;3.50;;
44384;SDS011;30101;32.778;34.994;2022-12-18T05:47:10;6.57;;;3.80;;
44384;SDS011;30101;32.778;34.994;2022-12-18T05:52:14;5.70;;;3.72;;
44384;SDS011;30101;32.778;34.994;2022-12-18T05:57:18;5.10;;;3.67;;
44384;SDS011;30101;32.778;34.994;2022-12-18T06:02:22;4.57;;;3.80;;
44384;SDS011;30101;32.778;34.994;2022-12-18T06:07:25;7.68;;;3.72;;
44384;SDS011;30101;32.778;34.994;2022-12-18T06:12:29;6.55;;;3.88;;
44384;SDS011;30101;32.778;34.994;2022-12-18T06:17:34;8.88;;;4.18;;
44384;SDS011;30101;32.778;34.994;2022-12-18T06:22:37;6.55;;;4.35;;
44384;SDS011;30101;32.778;34.994;2022-12-18T06:27:41;5.68;;;3.92;;
44384;SDS011;30101;32.778;34.994;2022-12-18T06:32:45;13.15;;;3.75;;
44384;SDS011;30101;32.778;34.994;2022-12-18T06:37:54;8.65;;;4.38;;
44384;SDS011;30101;32.778;34.994;2022-12-18T06:42:58;6.93;;;4.32;;
44384;SDS011;30101;32.778;34.994;2022-12-18T06:48:01;7.57;;;4.10;;
44384;SDS011;30101;32.778;34.994;2022-12-18T06:53:05;7.20;;;3.88;;
44384;SDS011;30101;32.778;34.994;2022-12-18T06:58:09;8.70;;;4.35;;
44384;SDS011;30101;32.778;34.994;2022-12-18T07:03:13;7.93;;;3.95;;
44384;SDS011;30101;32.778;34.994;2022-12-18T07:08:16;6.95;;;4.10;;
44384;SDS011;30101;32.778;34.994;2022-12-18T07:13:20;6.95;;;4.07;;
44384;SDS011;30101;32.778;34.994;2022-12-18T07:18:23;5.82;;;3.63;;
44384;SDS011;30101;32.778;34.994;2022-12-18T07:23:28;5.05;;;3.60;;
44384;SDS011;30101;32.778;34.994;2022-12-18T07:28:32;6.35;;;4.00;;
44384;SDS011;30101;32.778;34.994;2022-12-18T07:33:36;7.70;;;3.63;;
44384;SDS011;30101;32.778;34.994;2022-12-18T07:38:40;6.53;;;3.67;;
44384;SDS011;30101;32.778;34.994;2022-12-18T07:43:43;9.15;;;3.92;;
44384;SDS011;30101;32.778;34.994;2022-12-18T07:48:47;7.10;;;4.53;;
44384;SDS011;30101;32.778;34.994;2022-12-18T07:53:52;10.30;;;4.30;;
44384;SDS011;30101;32.778;34.994;2022-12-18T07:59:07;6.60;;;3.90;;
44384;SDS011;30101;32.778;34.994;2022-12-18T08:04:11;11.00;;;4.55;;
44384;SDS011;30101;32.778;34.994;2022-12-18T08:09:15;6.07;;;4.10;;
44384;SDS011;30101;32.778;34.994;2022-12-18T08:14:18;8.40;;;4.60;;
44384;SDS011;30101;32.778;34.994;2022-12-18T08:19:22;6.97;;;4.72;;
44384;SDS011;30101;32.778;34.994;2022-12-18T08:24:25;7.82;;;4.50;;
44384;SDS011;30101;32.778;34.994;2022-12-18T08:29:28;8.55;;;4.90;;
44384;SDS011;30101;32.778;34.994;2022-12-18T08:34:32;15.23;;;4.70;;
44384;SDS011;30101;32.778;34.994;2022-12-18T08:39:35;10.05;;;3.92;;
44384;SDS011;30101;32.778;34.994;2022-12-18T08:44:39;6.38;;;3.95;;
44384;SDS011;30101;32.778;34.994;2022-12-18T08:49:42;13.38;;;4.10;;
44384;SDS011;30101;32.778;34.994;2022-12-18T08:54:46;7.20;;;4.28;;
44384;SDS011;30101;32.778;34.994;2022-12-18T08:59:49;8.73;;;4.15;;
44384;SDS011;30101;32.778;34.994;2022-12-18T09:04:54;10.68;;;4.90;;
44384;SDS011;30101;32.778;34.994;2022-12-18T09:09:59;8.98;;;4.55;;
44384;SDS011;30101;32.778;34.994;2022-12-18T09:15:04;9.25;;;4.43;;
44384;SDS011;30101;32.778;34.994;2022-12-18T09:20:08;12.68;;;4.75;;
44384;SDS011;30101;32.778;34.994;2022-12-18T09:25:11;10.40;;;4.05;;
44384;SDS011;30101;32.778;34.994;2022-12-18T09:30:15;9.50;;;4.80;;
44384;SDS011;30101;32.778;34.994;2022-12-18T09:35:19;6.93;;;4.22;;
44384;SDS011;30101;32.778;34.994;2022-12-18T09:40:25;9.25;;;4.10;;
44384;SDS011;30101;32.778;34.994;2022-12-18T09:45:38;6.47;;;3.95;;
44384;SDS011;30101;32.778;34.994;2022-12-18T09:50:46;7.53;;;4.50;;
44384;SDS011;30101;32.778;34.994;2022-12-18T09:55:52;12.38;;;3.90;;
44384;SDS011;30101;32.778;34.994;2022-12-18T10:00:55;6.65;;;3.40;;
44384;SDS011;30101;32.778;34.994;2022-12-18T10:06:07;7.07;;;4.57;;
44384;SDS011;30101;32.778;34.994;2022-12-18T10:16:41;5.30;;;3.33;;
44384;SDS011;30101;32.778;34.994;2022-12-18T10:27:12;5.53;;;3.42;;
44384;SDS011;30101;32.778;34.994;2022-12-18T10:32:19;5.93;;;3.33;;
44384;SDS011;30101;32.778;34.994;2022-12-18T10:37:28;7.55;;;3.50;;
44384;SDS011;30101;32.778;34.994;2022-12-18T10:42:34;5.18;;;3.20;;
44384;SDS011;30101;32.778;34.994;2022-12-18T10:47:47;6.28;;;3.63;;
44384;SDS011;30101;32.778;34.994;2022-12-18T10:52:59;5.45;;;3.75;;
44384;SDS011;30101;32.778;34.994;2022-12-18T11:03:32;7.82;;;4.05;;
44384;SDS011;30101;32.778;34.994;2022-12-18T11:08:46;10.05;;;3.35;;
44384;SDS011;30101;32.778;34.994;2022-12-18T11:14:12;8.15;;;2.83;;
44384;SDS011;30101;32.778;34.994;2022-12-18T11:19:34;5.53;;;3.20;;
44384;SDS011;30101;32.778;34.994;2022-12-18T11:24:39;6.63;;;2.92;;
44384;SDS011;30101;32.778;34.994;2022-12-18T11:29:43;6.13;;;2.47;;
44384;SDS011;30101;32.778;34.994;2022-12-18T11:34:49;8.68;;;2.95;;
44384;SDS011;30101;32.778;34.994;2022-12-18T11:40:03;5.30;;;3.15;;
44384;SDS011;30101;32.778;34.994;2022-12-18T11:45:21;7.03;;;3.67;;
44384;SDS011;30101;32.778;34.994;2022-12-18T12:01:00;7.35;;;4.18;;
44384;SDS011;30101;32.778;34.994;2022-12-18T12:06:24;6.72;;;4.28;;
44384;SDS011;30101;32.778;34.994;2022-12-18T12:16:51;4.07;;;3.03;;
44384;SDS011;30101;32.778;34.994;2022-12-18T12:22:02;6.78;;;3.60;;
44384;SDS011;30101;32.778;34.994;2022-12-18T12:33:00;9.68;;;3.38;;
44384;SDS011;30101;32.778;34.994;2022-12-18T12:38:19;4.38;;;2.75;;
44384;SDS011;30101;32.778;34.994;2022-12-18T12:49:09;6.00;;;2.70;;
44384;SDS011;30101;32.778;34.994;2022-12-18T12:54:21;5.43;;;2.15;;
44384;SDS011;30101;32.778;34.994;2022-12-18T13:04:42;3.13;;;2.45;;
44384;SDS011;30101;32.778;34.994;2022-12-18T13:10:41;4.78;;;2.72;;
44384;SDS011;30101;32.778;34.994;2022-12-18T13:20:49;9.88;;;3.08;;
44384;SDS011;30101;32.778;34.994;2022-12-18T13:31:09;9.65;;;3.45;;
44384;SDS011;30101;32.778;34.994;2022-12-18T13:41:26;7.85;;;4.30;;
44384;SDS011;30101;32.778;34.994;2022-12-18T13:51:53;5.28;;;4.13;;
44384;SDS011;30101;32.778;34.994;2022-12-18T13:56:58;12.70;;;5.20;;
44384;SDS011;30101;32.778;34.994;2022-12-18T14:12:24;9.65;;;7.28;;
44384;SDS011;30101;32.778;34.994;2022-12-18T14:17:30;15.23;;;7.80;;
44384;SDS011;30101;32.778;34.994;2022-12-18T14:22:36;15.02;;;8.82;;
44384;SDS011;30101;32.778;34.994;2022-12-18T14:27:48;14.75;;;8.80;;
44384;SDS011;30101;32.778;34.994;2022-12-18T14:43:21;16.67;;;12.63;;
44384;SDS011;30101;32.778;34.994;2022-12-18T14:48:38;21.02;;;14.55;;
44384;SDS011;30101;32.778;34.994;2022-12-18T14:53:44;21.42;;;15.88;;
44384;SDS011;30101;32.778;34.994;2022-12-18T14:58:57;25.92;;;16.80;;
44384;SDS011;30101;32.778;34.994;2022-12-18T15:04:03;24.80;;;17.90;;
44384;SDS011;30101;32.778;34.994;2022-12-18T15:09:24;25.17;;;18.25;;
44384;SDS011;30101;32.778;34.994;2022-12-18T15:14:37;26.55;;;18.58;;
44384;SDS011;30101;32.778;34.994;2022-12-18T15:19:44;26.45;;;19.33;;
44384;SDS011;30101;32.778;34.994;2022-12-18T15:24:49;29.08;;;20.10;;
44384;SDS011;30101;32.778;34.994;2022-12-18T15:40:22;33.63;;;22.70;;
44384;SDS011;30101;32.778;34.994;2022-12-18T15:45:26;25.60;;;18.20;;
44384;SDS011;30101;32.778;34.994;2022-12-18T15:50:30;27.95;;;17.60;;
44384;SDS011;30101;32.778;34.994;2022-12-18T15:55:34;27.25;;;19.30;;
44384;SDS011;30101;32.778;34.994;2022-12-18T16:00:38;28.35;;;18.58;;
44384;SDS011;30101;32.778;34.994;2022-12-18T16:05:45;20.42;;;15.45;;
44384;SDS011;30101;32.778;34.994;2022-12-18T16:10:48;23.05;;;15.75;;
44384;SDS011;30101;32.778;34.994;2022-12-18T16:15:53;22.83;;;14.35;;
44384;SDS011;30101;32.778;34.994;2022-12-18T16:20:57;20.60;;;13.50;;
44384;SDS011;30101;32.778;34.994;2022-12-18T16:26:01;20.35;;;12.65;;
44384;SDS011;30101;32.778;34.994;2022-12-18T16:31:05;18.15;;;12.10;;
44384;SDS011;30101;32.778;34.994;2022-12-18T16:36:11;21.65;;;13.20;;
44384;SDS011;30101;32.778;34.994;2022-12-18T16:41:19;22.50;;;13.23;;
44384;SDS011;30101;32.778;34.994;2022-12-18T16:46:22;20.52;;;12.77;;
44384;SDS011;30101;32.778;34.994;2022-12-18T16:51:26;14.32;;;10.55;;
44384;SDS011;30101;32.778;34.994;2022-12-18T16:56:30;15.95;;;10.90;;
44384;SDS011;30101;32.778;34.994;2022-12-18T17:01:34;11.18;;;7.80;;
44384;SDS011;30101;32.778;34.994;2022-12-18T17:06:42;9.27;;;4.93;;
44384;SDS011;30101;32.778;34.994;2022-12-18T17:11:47;8.32;;;4.50;;
44384;SDS011;30101;32.778;34.994;2022-12-18T17:16:51;11.07;;;5.35;;
44384;SDS011;30101;32.778;34.994;2022-12-18T17:22:15;6.25;;;4.55;;
44384;SDS011;30101;32.778;34.994;2022-12-18T17:27:21;8.32;;;4.07;;
44384;SDS011;30101;32.778;34.994;2022-12-18T17:32:25;5.40;;;3.20;;
44384;SDS011;30101;32.778;34.994;2022-12-18T17:37:28;8.02;;;3.10;;
44384;SDS011;30101;32.778;34.994;2022-12-18T17:42:33;4.10;;;2.47;;
44384;SDS011;30101;32.778;34.994;2022-12-18T17:47:39;4.75;;;2.78;;
44384;SDS011;30101;32.778;34.994;2022-12-18T17:52:45;5.72;;;2.33;;
44384;SDS011;30101;32.778;34.994;2022-12-18T17:57:49;8.18;;;3.30;;
44384;SDS011;30101;32.778;34.994;2022-12-18T18:02:53;5.50;;;2.97;;
44384;SDS011;30101;32.778;34.994;2022-12-18T18:07:56;7.43;;;3.38;;
44384;SDS011;30101;32.778;34.994;2022-12-18T18:13:00;5.07;;;2.55;;
44384;SDS011;30101;32.778;34.994;2022-12-18T18:18:03;3.53;;;2.65;;
44384;SDS011;30101;32.778;34.994;2022-12-18T18:23:07;5.78;;;2.63;;
44384;SDS011;30101;32.778;34.994;2022-12-18T18:28:10;5.28;;;2.97;;
44384;SDS011;30101;32.778;34.994;2022-12-18T18:33:14;4.05;;;2.75;;
44384;SDS011;30101;32.778;34.994;2022-12-18T18:38:17;3.63;;;2.45;;
44384;SDS011;30101;32.778;34.994;2022-12-18T18:43:21;4.38;;;3.20;;
44384;SDS011;30101;32.778;34.994;2022-12-18T18:48:25;4.35;;;2.67;;
44384;SDS011;30101;32.778;34.994;2022-12-18T18:53:38;2.60;;;2.35;;
44384;SDS011;30101;32.778;34.994;2022-12-18T18:58:43;5.70;;;2.90;;
44384;SDS011;30101;32.778;34.994;2022-12-18T19:03:47;4.20;;;2.83;;
44384;SDS011;30101;32.778;34.994;2022-12-18T19:08:53;3.42;;;2.30;;
44384;SDS011;30101;32.778;34.994;2022-12-18T19:13:57;4.45;;;2.70;;
44384;SDS011;30101;32.778;34.994;2022-12-18T19:19:02;4.20;;;2.50;;
44384;SDS011;30101;32.778;34.994;2022-12-18T19:24:06;4.78;;;3.00;;
44384;SDS011;30101;32.778;34.994;2022-12-18T19:29:12;4.90;;;3.05;;
44384;SDS011;30101;32.778;34.994;2022-12-18T19:34:16;5.72;;;2.63;;
44384;SDS011;30101;32.778;34.994;2022-12-18T19:39:23;5.25;;;2.90;;
44384;SDS011;30101;32.778;34.994;2022-12-18T19:44:27;4.47;;;3.25;;
44384;SDS011;30101;32.778;34.994;2022-12-18T19:49:31;4.13;;;2.25;;
44384;SDS011;30101;32.778;34.994;2022-12-18T19:54:37;8.00;;;2.80;;
44384;SDS011;30101;32.778;34.994;2022-12-18T19:59:42;5.00;;;2.33;;
44384;SDS011;30101;32.778;34.994;2022-12-18T20:04:47;6.80;;;3.05;;
44384;SDS011;30101;32.778;34.994;2022-12-18T20:09:51;6.40;;;2.95;;
44384;SDS011;30101;32.778;34.994;2022-12-18T20:15:05;6.32;;;3.17;;
44384;SDS011;30101;32.778;34.994;2022-12-18T20:20:10;4.45;;;3.05;;
44384;SDS011;30101;32.778;34.994;2022-12-18T20:25:15;5.20;;;3.05;;
44384;SDS011;30101;32.778;34.994;2022-12-18T20:30:19;5.82;;;2.88;;
44384;SDS011;30101;32.778;34.994;2022-12-18T20:35:23;5.47;;;3.70;;
44384;SDS011;30101;32.778;34.994;2022-12-18T20:40:27;5.35;;;3.30;;
44384;SDS011;30101;32.778;34.994;2022-12-18T20:45:31;7.40;;;3.50;;
44384;SDS011;30101;32.778;34.994;2022-12-18T20:50:35;5.47;;;2.45;;
44384;SDS011;30101;32.778;34.994;2022-12-18T20:55:40;7.47;;;3.45;;
44384;SDS011;30101;32.778;34.994;2022-12-18T21:00:46;8.32;;;3.53;;
44384;SDS011;30101;32.778;34.994;2022-12-18T21:05:50;5.40;;;3.65;;
44384;SDS011;30101;32.778;34.994;2022-12-18T21:10:54;4.78;;;2.92;;
44384;SDS011;30101;32.778;34.994;2022-12-18T21:16:00;11.55;;;3.28;;
44384;SDS011;30101;32.778;34.994;2022-12-18T21:21:04;4.55;;;3.67;;
44384;SDS011;30101;32.778;34.994;2022-12-18T21:26:19;8.60;;;3.17;;
44384;SDS011;30101;32.778;34.994;2022-12-18T21:31:26;7.28;;;3.25;;
44384;SDS011;30101;32.778;34.994;2022-12-18T21:36:32;5.95;;;3.15;;
44384;SDS011;30101;32.778;34.994;2022-12-18T21:41:36;6.45;;;3.00;;
44384;SDS011;30101;32.778;34.994;2022-12-18T21:46:45;8.10;;;3.10;;
44384;SDS011;30101;32.778;34.994;2022-12-18T21:51:57;5.00;;;3.20;;
44384;SDS011;30101;32.778;34.994;2022-12-18T21:57:02;4.53;;;2.78;;
44384;SDS011;30101;32.778;34.994;2022-12-18T22:02:14;5.57;;;3.67;;
44384;SDS011;30101;32.778;34.994;2022-12-18T22:07:22;4.18;;;2.70;;
44384;SDS011;30101;32.778;34.994;2022-12-18T22:17:28;6.93;;;3.20;;
44384;SDS011;30101;32.778;34.994;2022-12-18T22:22:32;6.10;;;3.22;;
44384;SDS011;30101;32.778;34.994;2022-12-18T22:27:35;6.70;;;4.05;;
44384;SDS011;30101;32.778;34.994;2022-12-18T22:32:39;3.80;;;3.00;;
44384;SDS011;30101;32.778;34.994;2022-12-18T22:37:42;5.60;;;3.85;;
44384;SDS011;30101;32.778;34.994;2022-12-18T22:42:46;7.95;;;3.63;;
44384;SDS011;30101;32.778;34.994;2022-12-18T22:47:52;5.00;;;3.20;;
44384;SDS011;30101;32.778;34.994;2022-12-18T22:52:55;5.47;;;3.72;;
44384;SDS011;30101;32.778;34.994;2022-12-18T22:57:59;6.82;;;3.78;;
44384;SDS011;30101;32.778;34.994;2022-12-18T23:03:02;5.78;;;3.78;;
44384;SDS011;30101;32.778;34.994;2022-12-18T23:08:08;8.00;;;3.63;;
44384;SDS011;30101;32.778;34.994;2022-12-18T23:13:12;5.07;;;3.10;;
44384;SDS011;30101;32.778;34.994;2022-12-18T23:18:15;3.90;;;2.83;;
44384;SDS011;30101;32.778;34.994;2022-12-18T23:23:19;5.65;;;4.28;;
44384;SDS011;30101;32.778;34.994;2022-12-18T23:28:23;4.82;;;3.17;;
44384;SDS011;30101;32.778;34.994;2022-12-18T23:33:28;5.43;;;3.28;;
44384;SDS011;30101;32.778;34.994;2022-12-18T23:38:32;5.55;;;3.20;;
44384;SDS011;30101;32.778;34.994;2022-12-18T23:43:36;6.57;;;3.85;;
44384;SDS011;30101;32.778;34.994;2022-12-18T23:48:40;7.43;;;3.47;;
44384;SDS011;30101;32.778;34.994;2022-12-18T23:53:43;5.18;;;3.35;;
44384;SDS011;30101;32.778;34.994;2022-12-18T23:58:47;8.77;;;3.40;;
